sensor_id;sensor_type;location;lat;lon;timestamp;temperature;humidity
4828;DHT22;2428;48.732;9.148;2023-10-09T00:01:50;13.20;99.90
4828;DHT22;2428;48.732;9.148;2023-10-09T00:04:17;13.20;99.90
4828;DHT22;2428;48.732;9.148;2023-10-09T00:06:43;13.20;99.90
4828;DHT22;2428;48.732;9.148;2023-10-09T00:09:09;13.20;99.90
4828;DHT22;2428;48.732;9.148;2023-10-09T00:11:44;13.20;99.90
4828;DHT22;2428;48.732;9.148;2023-10-09T00:14:11;13.20;99.90
4828;DHT22;2428;48.732;9.148;2023-10-09T00:16:37;13.20;99.90
4828;DHT22;2428;48.732;9.148;2023-10-09T00:19:08;13.20;99.90
4828;DHT22;2428;48.732;9.148;2023-10-09T00:21:46;13.20;99.90
4828;DHT22;2428;48.732;9.148;2023-10-09T00:24:13;13.20;99.90
4828;DHT22;2428;48.732;9.148;2023-10-09T00:26:40;13.10;99.90
4828;DHT22;2428;48.732;9.148;2023-10-09T00:29:13;13.10;99.90
4828;DHT22;2428;48.732;9.148;2023-10-09T00:31:42;13.10;99.90
4828;DHT22;2428;48.732;9.148;2023-10-09T00:34:16;13.10;99.90
4828;DHT22;2428;48.732;9.148;2023-10-09T00:36:45;13.10;99.90
4828;DHT22;2428;48.732;9.148;2023-10-09T00:39:20;13.10;99.90
4828;DHT22;2428;48.732;9.148;2023-10-09T00:42:17;13.10;99.90
4828;DHT22;2428;48.732;9.148;2023-10-09T00:44:54;13.10;99.90
4828;DHT22;2428;48.732;9.148;2023-10-09T00:47:19;13.10;99.90
4828;DHT22;2428;48.732;9.148;2023-10-09T00:49:54;13.00;99.90
4828;DHT22;2428;48.732;9.148;2023-10-09T00:52:28;13.00;99.90
4828;DHT22;2428;48.732;9.148;2023-10-09T00:55:05;13.00;99.90
4828;DHT22;2428;48.732;9.148;2023-10-09T00:57:46;13.00;99.90
4828;DHT22;2428;48.732;9.148;2023-10-09T01:00:26;13.00;99.90
4828;DHT22;2428;48.732;9.148;2023-10-09T01:03:04;13.00;99.90
4828;DHT22;2428;48.732;9.148;2023-10-09T01:06:01;13.10;99.90
4828;DHT22;2428;48.732;9.148;2023-10-09T01:08:38;13.00;99.90
4828;DHT22;2428;48.732;9.148;2023-10-09T01:13:40;13.00;99.90
4828;DHT22;2428;48.732;9.148;2023-10-09T01:16:12;13.10;99.90
4828;DHT22;2428;48.732;9.148;2023-10-09T01:18:40;13.10;99.90
4828;DHT22;2428;48.732;9.148;2023-10-09T01:21:08;13.10;99.90
4828;DHT22;2428;48.732;9.148;2023-10-09T01:23:44;13.10;99.90
4828;DHT22;2428;48.732;9.148;2023-10-09T01:29:07;13.20;99.90
4828;DHT22;2428;48.732;9.148;2023-10-09T01:31:40;13.20;99.90
4828;DHT22;2428;48.732;9.148;2023-10-09T01:34:12;13.30;99.90
4828;DHT22;2428;48.732;9.148;2023-10-09T01:36:38;13.30;99.90
4828;DHT22;2428;48.732;9.148;2023-10-09T01:39:05;13.40;99.90
4828;DHT22;2428;48.732;9.148;2023-10-09T01:41:54;13.60;99.90
4828;DHT22;2428;48.732;9.148;2023-10-09T01:44:25;13.60;99.90
4828;DHT22;2428;48.732;9.148;2023-10-09T01:47:01;13.50;99.90
4828;DHT22;2428;48.732;9.148;2023-10-09T01:49:35;13.60;99.90
4828;DHT22;2428;48.732;9.148;2023-10-09T01:52:03;13.60;99.90
4828;DHT22;2428;48.732;9.148;2023-10-09T01:54:39;13.60;99.90
4828;DHT22;2428;48.732;9.148;2023-10-09T01:57:12;13.60;99.90
4828;DHT22;2428;48.732;9.148;2023-10-09T01:59:42;13.70;99.90
4828;DHT22;2428;48.732;9.148;2023-10-09T02:02:14;13.70;99.90
4828;DHT22;2428;48.732;9.148;2023-10-09T02:04:42;13.70;99.90
4828;DHT22;2428;48.732;9.148;2023-10-09T02:07:08;13.70;99.90
4828;DHT22;2428;48.732;9.148;2023-10-09T02:09:34;13.60;99.90
4828;DHT22;2428;48.732;9.148;2023-10-09T02:12:03;13.60;99.90
4828;DHT22;2428;48.732;9.148;2023-10-09T02:14:29;13.60;99.90
4828;DHT22;2428;48.732;9.148;2023-10-09T02:16:54;13.60;99.90
4828;DHT22;2428;48.732;9.148;2023-10-09T02:19:33;13.60;99.90
4828;DHT22;2428;48.732;9.148;2023-10-09T02:22:00;13.60;99.90
4828;DHT22;2428;48.732;9.148;2023-10-09T02:24:28;13.70;99.90
4828;DHT22;2428;48.732;9.148;2023-10-09T02:27:14;13.60;99.90
4828;DHT22;2428;48.732;9.148;2023-10-09T02:30:00;13.60;99.90
4828;DHT22;2428;48.732;9.148;2023-10-09T02:32:34;13.60;99.90
4828;DHT22;2428;48.732;9.148;2023-10-09T02:35:01;13.60;99.90
4828;DHT22;2428;48.732;9.148;2023-10-09T02:37:35;13.70;99.90
4828;DHT22;2428;48.732;9.148;2023-10-09T02:40:04;13.60;99.90
4828;DHT22;2428;48.732;9.148;2023-10-09T02:42:36;13.60;99.90
4828;DHT22;2428;48.732;9.148;2023-10-09T02:45:08;13.60;99.90
4828;DHT22;2428;48.732;9.148;2023-10-09T02:47:37;13.60;99.90
4828;DHT22;2428;48.732;9.148;2023-10-09T02:50:05;13.60;99.90
4828;DHT22;2428;48.732;9.148;2023-10-09T02:52:45;13.60;99.90
4828;DHT22;2428;48.732;9.148;2023-10-09T02:55:13;13.50;99.90
4828;DHT22;2428;48.732;9.148;2023-10-09T02:57:58;13.60;99.90
4828;DHT22;2428;48.732;9.148;2023-10-09T03:00:37;13.50;99.90
4828;DHT22;2428;48.732;9.148;2023-10-09T03:03:04;13.50;99.90
4828;DHT22;2428;48.732;9.148;2023-10-09T03:05:33;13.60;99.90
4828;DHT22;2428;48.732;9.148;2023-10-09T03:07:59;13.60;99.90
4828;DHT22;2428;48.732;9.148;2023-10-09T03:10:27;13.60;99.90
4828;DHT22;2428;48.732;9.148;2023-10-09T03:12:53;13.60;99.90
4828;DHT22;2428;48.732;9.148;2023-10-09T03:15:20;13.60;99.90
4828;DHT22;2428;48.732;9.148;2023-10-09T03:17:48;13.60;99.90
4828;DHT22;2428;48.732;9.148;2023-10-09T03:20:15;13.60;99.90
4828;DHT22;2428;48.732;9.148;2023-10-09T03:22:43;13.60;99.90
4828;DHT22;2428;48.732;9.148;2023-10-09T03:25:10;13.60;99.90
4828;DHT22;2428;48.732;9.148;2023-10-09T03:27:43;13.70;99.90
4828;DHT22;2428;48.732;9.148;2023-10-09T03:30:12;13.70;99.90
4828;DHT22;2428;48.732;9.148;2023-10-09T03:32:45;13.70;99.90
4828;DHT22;2428;48.732;9.148;2023-10-09T03:35:16;13.80;99.90
4828;DHT22;2428;48.732;9.148;2023-10-09T03:37:49;13.80;99.90
4828;DHT22;2428;48.732;9.148;2023-10-09T03:40:15;13.90;99.90
4828;DHT22;2428;48.732;9.148;2023-10-09T03:42:43;13.90;99.90
4828;DHT22;2428;48.732;9.148;2023-10-09T03:45:09;14.00;99.90
4828;DHT22;2428;48.732;9.148;2023-10-09T03:47:44;14.00;99.90
4828;DHT22;2428;48.732;9.148;2023-10-09T03:50:13;14.00;99.90
4828;DHT22;2428;48.732;9.148;2023-10-09T03:52:58;14.00;99.90
4828;DHT22;2428;48.732;9.148;2023-10-09T03:55:23;14.00;99.90
4828;DHT22;2428;48.732;9.148;2023-10-09T03:58:01;14.00;99.90
4828;DHT22;2428;48.732;9.148;2023-10-09T04:00:29;14.00;99.90
4828;DHT22;2428;48.732;9.148;2023-10-09T04:02:56;14.00;99.90
4828;DHT22;2428;48.732;9.148;2023-10-09T04:05:23;14.00;99.90
4828;DHT22;2428;48.732;9.148;2023-10-09T04:07:48;14.00;99.90
4828;DHT22;2428;48.732;9.148;2023-10-09T04:10:14;14.00;99.90
4828;DHT22;2428;48.732;9.148;2023-10-09T04:13:09;14.00;99.90
4828;DHT22;2428;48.732;9.148;2023-10-09T04:15:37;13.90;99.90
4828;DHT22;2428;48.732;9.148;2023-10-09T04:18:03;13.90;99.90
4828;DHT22;2428;48.732;9.148;2023-10-09T04:20:31;13.90;99.90
4828;DHT22;2428;48.732;9.148;2023-10-09T04:22:59;13.90;99.90
4828;DHT22;2428;48.732;9.148;2023-10-09T04:25:30;13.90;99.90
4828;DHT22;2428;48.732;9.148;2023-10-09T04:28:06;13.90;99.90
4828;DHT22;2428;48.732;9.148;2023-10-09T04:30:41;13.80;99.90
4828;DHT22;2428;48.732;9.148;2023-10-09T04:33:12;13.80;99.90
4828;DHT22;2428;48.732;9.148;2023-10-09T04:36:03;13.80;99.90
4828;DHT22;2428;48.732;9.148;2023-10-09T04:38:48;13.70;99.90
4828;DHT22;2428;48.732;9.148;2023-10-09T04:41:32;13.70;99.90
4828;DHT22;2428;48.732;9.148;2023-10-09T04:44:00;13.70;99.90
4828;DHT22;2428;48.732;9.148;2023-10-09T04:46:48;13.60;99.90
4828;DHT22;2428;48.732;9.148;2023-10-09T04:49:34;13.70;99.90
4828;DHT22;2428;48.732;9.148;2023-10-09T04:52:19;13.60;99.90
4828;DHT22;2428;48.732;9.148;2023-10-09T04:54:51;13.60;99.90
4828;DHT22;2428;48.732;9.148;2023-10-09T04:57:38;13.60;99.90
4828;DHT22;2428;48.732;9.148;2023-10-09T05:02:54;13.60;99.90
4828;DHT22;2428;48.732;9.148;2023-10-09T05:05:27;13.60;99.90
4828;DHT22;2428;48.732;9.148;2023-10-09T05:07:58;13.60;99.90
4828;DHT22;2428;48.732;9.148;2023-10-09T05:10:42;13.60;99.90
4828;DHT22;2428;48.732;9.148;2023-10-09T05:13:26;13.60;99.90
4828;DHT22;2428;48.732;9.148;2023-10-09T05:18:43;13.70;99.90
4828;DHT22;2428;48.732;9.148;2023-10-09T05:21:11;13.70;99.90
4828;DHT22;2428;48.732;9.148;2023-10-09T05:23:55;13.80;99.90
4828;DHT22;2428;48.732;9.148;2023-10-09T05:26:49;13.70;99.90
4828;DHT22;2428;48.732;9.148;2023-10-09T05:29:24;13.80;99.90
4828;DHT22;2428;48.732;9.148;2023-10-09T05:32:01;13.70;99.90
4828;DHT22;2428;48.732;9.148;2023-10-09T05:34:43;13.70;99.90
4828;DHT22;2428;48.732;9.148;2023-10-09T05:37:25;13.70;99.90
4828;DHT22;2428;48.732;9.148;2023-10-09T05:39:52;13.70;99.90
4828;DHT22;2428;48.732;9.148;2023-10-09T05:42:28;13.60;99.90
4828;DHT22;2428;48.732;9.148;2023-10-09T05:45:06;13.60;99.90
4828;DHT22;2428;48.732;9.148;2023-10-09T05:47:52;13.60;99.90
4828;DHT22;2428;48.732;9.148;2023-10-09T05:50:28;13.70;99.90
4828;DHT22;2428;48.732;9.148;2023-10-09T05:52:55;13.60;99.90
4828;DHT22;2428;48.732;9.148;2023-10-09T05:55:23;13.70;99.90
4828;DHT22;2428;48.732;9.148;2023-10-09T05:58:07;13.70;99.90
4828;DHT22;2428;48.732;9.148;2023-10-09T06:00:45;13.60;99.90
4828;DHT22;2428;48.732;9.148;2023-10-09T06:03:29;13.70;99.90
4828;DHT22;2428;48.732;9.148;2023-10-09T06:06:16;13.70;99.90
4828;DHT22;2428;48.732;9.148;2023-10-09T06:09:05;13.70;99.90
4828;DHT22;2428;48.732;9.148;2023-10-09T06:11:41;13.70;99.90
4828;DHT22;2428;48.732;9.148;2023-10-09T06:14:15;13.70;99.90
4828;DHT22;2428;48.732;9.148;2023-10-09T06:16:51;13.70;99.90
4828;DHT22;2428;48.732;9.148;2023-10-09T06:19:28;13.70;99.90
4828;DHT22;2428;48.732;9.148;2023-10-09T06:21:55;13.80;99.90
4828;DHT22;2428;48.732;9.148;2023-10-09T06:24:40;13.90;99.90
4828;DHT22;2428;48.732;9.148;2023-10-09T06:27:18;14.00;99.90
4828;DHT22;2428;48.732;9.148;2023-10-09T06:29:52;14.00;99.90
4828;DHT22;2428;48.732;9.148;2023-10-09T06:32:41;14.10;99.90
4828;DHT22;2428;48.732;9.148;2023-10-09T06:35:26;14.10;99.90
4828;DHT22;2428;48.732;9.148;2023-10-09T06:37:58;14.20;99.90
4828;DHT22;2428;48.732;9.148;2023-10-09T06:40:30;14.30;99.90
4828;DHT22;2428;48.732;9.148;2023-10-09T06:43:05;14.30;99.90
4828;DHT22;2428;48.732;9.148;2023-10-09T06:45:58;14.40;99.90
4828;DHT22;2428;48.732;9.148;2023-10-09T06:48:27;14.50;99.90
4828;DHT22;2428;48.732;9.148;2023-10-09T06:51:09;14.50;99.90
4828;DHT22;2428;48.732;9.148;2023-10-09T06:53:35;14.60;99.90
4828;DHT22;2428;48.732;9.148;2023-10-09T06:56:22;14.60;99.90
4828;DHT22;2428;48.732;9.148;2023-10-09T06:58:50;14.70;99.90
4828;DHT22;2428;48.732;9.148;2023-10-09T07:01:20;14.80;99.90
4828;DHT22;2428;48.732;9.148;2023-10-09T07:04:05;14.80;99.90
4828;DHT22;2428;48.732;9.148;2023-10-09T07:07:06;14.80;99.90
4828;DHT22;2428;48.732;9.148;2023-10-09T07:09:47;14.90;99.90
4828;DHT22;2428;48.732;9.148;2023-10-09T07:12:32;14.90;99.90
4828;DHT22;2428;48.732;9.148;2023-10-09T07:15:01;15.10;99.90
4828;DHT22;2428;48.732;9.148;2023-10-09T07:17:47;15.10;99.90
4828;DHT22;2428;48.732;9.148;2023-10-09T07:20:13;15.10;99.90
4828;DHT22;2428;48.732;9.148;2023-10-09T07:23:01;15.10;99.90
4828;DHT22;2428;48.732;9.148;2023-10-09T07:25:43;15.20;99.90
4828;DHT22;2428;48.732;9.148;2023-10-09T07:28:21;15.30;99.90
4828;DHT22;2428;48.732;9.148;2023-10-09T07:31:03;15.30;99.90
4828;DHT22;2428;48.732;9.148;2023-10-09T07:33:29;15.40;99.90
4828;DHT22;2428;48.732;9.148;2023-10-09T07:36:16;15.50;99.90
4828;DHT22;2428;48.732;9.148;2023-10-09T07:38:55;15.60;99.90
4828;DHT22;2428;48.732;9.148;2023-10-09T07:41:20;15.60;99.90
4828;DHT22;2428;48.732;9.148;2023-10-09T07:43:46;15.70;99.90
4828;DHT22;2428;48.732;9.148;2023-10-09T07:46:14;15.70;99.90
4828;DHT22;2428;48.732;9.148;2023-10-09T07:48:59;15.80;99.90
4828;DHT22;2428;48.732;9.148;2023-10-09T07:51:35;15.80;99.90
4828;DHT22;2428;48.732;9.148;2023-10-09T07:54:01;15.90;99.90
4828;DHT22;2428;48.732;9.148;2023-10-09T07:56:39;16.00;99.90
4828;DHT22;2428;48.732;9.148;2023-10-09T07:59:19;16.10;99.90
4828;DHT22;2428;48.732;9.148;2023-10-09T08:01:48;16.10;99.90
4828;DHT22;2428;48.732;9.148;2023-10-09T08:04:25;16.20;99.90
4828;DHT22;2428;48.732;9.148;2023-10-09T08:07:09;16.20;99.90
4828;DHT22;2428;48.732;9.148;2023-10-09T08:09:44;16.30;99.90
4828;DHT22;2428;48.732;9.148;2023-10-09T08:12:37;16.30;99.90
4828;DHT22;2428;48.732;9.148;2023-10-09T08:15:24;16.40;99.90
4828;DHT22;2428;48.732;9.148;2023-10-09T08:18:00;16.50;99.90
4828;DHT22;2428;48.732;9.148;2023-10-09T08:20:31;16.60;99.90
4828;DHT22;2428;48.732;9.148;2023-10-09T08:23:16;16.70;99.90
4828;DHT22;2428;48.732;9.148;2023-10-09T08:26:03;16.80;99.90
4828;DHT22;2428;48.732;9.148;2023-10-09T08:28:39;16.90;99.90
4828;DHT22;2428;48.732;9.148;2023-10-09T08:31:12;16.90;99.90
4828;DHT22;2428;48.732;9.148;2023-10-09T08:33:58;17.00;99.90
4828;DHT22;2428;48.732;9.148;2023-10-09T08:36:25;17.00;99.90
4828;DHT22;2428;48.732;9.148;2023-10-09T08:38:57;17.10;99.90
4828;DHT22;2428;48.732;9.148;2023-10-09T08:41:24;17.30;99.90
4828;DHT22;2428;48.732;9.148;2023-10-09T08:43:52;17.40;99.90
4828;DHT22;2428;48.732;9.148;2023-10-09T08:48:48;17.60;99.90
4828;DHT22;2428;48.732;9.148;2023-10-09T08:51:14;17.60;99.90
4828;DHT22;2428;48.732;9.148;2023-10-09T08:53:40;17.70;99.90
4828;DHT22;2428;48.732;9.148;2023-10-09T08:56:12;17.70;99.90
4828;DHT22;2428;48.732;9.148;2023-10-09T08:58:41;17.70;99.90
4828;DHT22;2428;48.732;9.148;2023-10-09T09:01:06;17.70;99.90
4828;DHT22;2428;48.732;9.148;2023-10-09T09:03:39;17.80;99.90
4828;DHT22;2428;48.732;9.148;2023-10-09T09:06:06;17.80;99.90
4828;DHT22;2428;48.732;9.148;2023-10-09T09:08:33;17.90;99.90
4828;DHT22;2428;48.732;9.148;2023-10-09T09:11:02;17.80;99.90
4828;DHT22;2428;48.732;9.148;2023-10-09T09:13:44;17.90;99.90
4828;DHT22;2428;48.732;9.148;2023-10-09T09:16:23;18.00;99.90
4828;DHT22;2428;48.732;9.148;2023-10-09T09:18:59;18.00;99.90
4828;DHT22;2428;48.732;9.148;2023-10-09T09:21:39;18.00;99.90
4828;DHT22;2428;48.732;9.148;2023-10-09T09:24:13;18.10;99.90
4828;DHT22;2428;48.732;9.148;2023-10-09T09:26:43;18.10;99.90
4828;DHT22;2428;48.732;9.148;2023-10-09T09:29:13;18.20;99.90
4828;DHT22;2428;48.732;9.148;2023-10-09T09:31:55;18.20;99.90
4828;DHT22;2428;48.732;9.148;2023-10-09T09:34:23;18.30;99.90
4828;DHT22;2428;48.732;9.148;2023-10-09T09:36:55;18.50;99.90
4828;DHT22;2428;48.732;9.148;2023-10-09T09:39:23;18.40;99.90
4828;DHT22;2428;48.732;9.148;2023-10-09T09:42:00;18.50;99.90
4828;DHT22;2428;48.732;9.148;2023-10-09T09:44:39;18.60;99.90
4828;DHT22;2428;48.732;9.148;2023-10-09T09:47:14;18.70;99.90
4828;DHT22;2428;48.732;9.148;2023-10-09T09:49:51;18.80;99.90
4828;DHT22;2428;48.732;9.148;2023-10-09T09:52:34;18.80;99.90
4828;DHT22;2428;48.732;9.148;2023-10-09T09:55:09;18.90;99.90
4828;DHT22;2428;48.732;9.148;2023-10-09T09:57:48;19.00;99.90
4828;DHT22;2428;48.732;9.148;2023-10-09T10:00:21;19.10;99.90
4828;DHT22;2428;48.732;9.148;2023-10-09T10:03:13;19.20;99.90
4828;DHT22;2428;48.732;9.148;2023-10-09T10:05:42;19.30;99.90
4828;DHT22;2428;48.732;9.148;2023-10-09T10:08:09;19.30;99.90
4828;DHT22;2428;48.732;9.148;2023-10-09T10:10:40;19.40;99.90
4828;DHT22;2428;48.732;9.148;2023-10-09T10:16:10;19.60;99.90
4828;DHT22;2428;48.732;9.148;2023-10-09T10:21:18;19.90;99.90
4828;DHT22;2428;48.732;9.148;2023-10-09T10:23:54;20.00;99.90
4828;DHT22;2428;48.732;9.148;2023-10-09T10:26:27;20.10;99.90
4828;DHT22;2428;48.732;9.148;2023-10-09T10:32:01;20.40;99.90
4828;DHT22;2428;48.732;9.148;2023-10-09T10:37:21;20.80;99.90
4828;DHT22;2428;48.732;9.148;2023-10-09T10:39:54;20.80;99.90
4828;DHT22;2428;48.732;9.148;2023-10-09T10:42:25;21.00;99.90
4828;DHT22;2428;48.732;9.148;2023-10-09T10:45:02;21.10;99.90
4828;DHT22;2428;48.732;9.148;2023-10-09T10:47:40;21.10;99.90
4828;DHT22;2428;48.732;9.148;2023-10-09T10:50:08;21.00;99.90
4828;DHT22;2428;48.732;9.148;2023-10-09T10:53:28;20.90;99.90
4828;DHT22;2428;48.732;9.148;2023-10-09T10:56:03;20.70;99.90
4828;DHT22;2428;48.732;9.148;2023-10-09T10:58:55;20.60;99.90
4828;DHT22;2428;48.732;9.148;2023-10-09T11:01:37;20.60;99.90
4828;DHT22;2428;48.732;9.148;2023-10-09T11:04:28;20.50;99.90
4828;DHT22;2428;48.732;9.148;2023-10-09T11:06:58;20.60;99.90
4828;DHT22;2428;48.732;9.148;2023-10-09T11:09:54;20.50;99.90
4828;DHT22;2428;48.732;9.148;2023-10-09T11:12:45;20.50;99.90
4828;DHT22;2428;48.732;9.148;2023-10-09T11:15:36;20.50;99.90
4828;DHT22;2428;48.732;9.148;2023-10-09T11:18:14;20.60;99.90
4828;DHT22;2428;48.732;9.148;2023-10-09T11:20:50;20.60;99.90
4828;DHT22;2428;48.732;9.148;2023-10-09T11:23:42;20.80;99.90
4828;DHT22;2428;48.732;9.148;2023-10-09T11:26:17;20.90;99.90
4828;DHT22;2428;48.732;9.148;2023-10-09T11:29:13;21.00;99.90
4828;DHT22;2428;48.732;9.148;2023-10-09T11:32:14;21.00;99.90
4828;DHT22;2428;48.732;9.148;2023-10-09T11:34:47;21.10;99.90
4828;DHT22;2428;48.732;9.148;2023-10-09T11:37:23;21.10;99.90
4828;DHT22;2428;48.732;9.148;2023-10-09T11:39:58;21.10;99.90
4828;DHT22;2428;48.732;9.148;2023-10-09T11:42:28;21.00;99.90
4828;DHT22;2428;48.732;9.148;2023-10-09T11:45:22;21.10;99.90
4828;DHT22;2428;48.732;9.148;2023-10-09T11:48:15;21.00;99.90
4828;DHT22;2428;48.732;9.148;2023-10-09T11:50:47;20.90;99.90
4828;DHT22;2428;48.732;9.148;2023-10-09T11:53:17;20.90;99.90
4828;DHT22;2428;48.732;9.148;2023-10-09T11:55:59;20.80;99.90
4828;DHT22;2428;48.732;9.148;2023-10-09T11:58:28;20.70;99.90
4828;DHT22;2428;48.732;9.148;2023-10-09T12:00:54;20.70;99.90
4828;DHT22;2428;48.732;9.148;2023-10-09T12:03:31;20.70;99.90
4828;DHT22;2428;48.732;9.148;2023-10-09T12:06:01;20.60;99.90
4828;DHT22;2428;48.732;9.148;2023-10-09T12:08:34;20.60;99.90
4828;DHT22;2428;48.732;9.148;2023-10-09T12:11:01;20.60;99.90
4828;DHT22;2428;48.732;9.148;2023-10-09T12:13:33;20.60;99.90
4828;DHT22;2428;48.732;9.148;2023-10-09T12:15:59;20.60;99.90
4828;DHT22;2428;48.732;9.148;2023-10-09T12:18:25;20.70;99.90
4828;DHT22;2428;48.732;9.148;2023-10-09T12:20:51;20.80;99.90
4828;DHT22;2428;48.732;9.148;2023-10-09T12:23:19;20.90;98.90
4828;DHT22;2428;48.732;9.148;2023-10-09T12:25:47;21.10;96.60
4828;DHT22;2428;48.732;9.148;2023-10-09T12:28:14;21.20;97.30
4828;DHT22;2428;48.732;9.148;2023-10-09T12:30:40;21.30;96.80
4828;DHT22;2428;48.732;9.148;2023-10-09T12:33:06;21.50;96.50
4828;DHT22;2428;48.732;9.148;2023-10-09T12:35:37;21.60;94.50
4828;DHT22;2428;48.732;9.148;2023-10-09T12:38:04;21.80;93.60
4828;DHT22;2428;48.732;9.148;2023-10-09T12:40:34;22.00;92.50
4828;DHT22;2428;48.732;9.148;2023-10-09T12:43:00;22.20;93.70
4828;DHT22;2428;48.732;9.148;2023-10-09T12:45:26;22.40;93.40
4828;DHT22;2428;48.732;9.148;2023-10-09T12:47:54;22.50;93.30
4828;DHT22;2428;48.732;9.148;2023-10-09T12:50:34;22.50;93.40
4828;DHT22;2428;48.732;9.148;2023-10-09T12:53:00;22.60;94.60
4828;DHT22;2428;48.732;9.148;2023-10-09T12:55:37;22.60;94.10
4828;DHT22;2428;48.732;9.148;2023-10-09T12:58:11;22.60;94.00
4828;DHT22;2428;48.732;9.148;2023-10-09T13:00:41;22.70;94.20
4828;DHT22;2428;48.732;9.148;2023-10-09T13:03:14;22.70;92.20
4828;DHT22;2428;48.732;9.148;2023-10-09T13:05:52;22.70;93.10
4828;DHT22;2428;48.732;9.148;2023-10-09T13:08:29;22.60;92.50
4828;DHT22;2428;48.732;9.148;2023-10-09T13:11:05;22.50;93.10
4828;DHT22;2428;48.732;9.148;2023-10-09T13:13:36;22.40;92.90
4828;DHT22;2428;48.732;9.148;2023-10-09T13:16:11;22.40;94.40
4828;DHT22;2428;48.732;9.148;2023-10-09T13:18:52;22.40;93.00
4828;DHT22;2428;48.732;9.148;2023-10-09T13:21:27;22.40;93.80
4828;DHT22;2428;48.732;9.148;2023-10-09T13:23:57;22.40;92.00
4828;DHT22;2428;48.732;9.148;2023-10-09T13:26:24;22.40;89.70
4828;DHT22;2428;48.732;9.148;2023-10-09T13:28:55;22.40;88.50
4828;DHT22;2428;48.732;9.148;2023-10-09T13:31:23;22.30;88.20
4828;DHT22;2428;48.732;9.148;2023-10-09T13:33:52;22.30;88.30
4828;DHT22;2428;48.732;9.148;2023-10-09T13:36:22;22.30;86.40
4828;DHT22;2428;48.732;9.148;2023-10-09T13:38:57;22.30;84.70
4828;DHT22;2428;48.732;9.148;2023-10-09T13:41:27;22.30;81.50
4828;DHT22;2428;48.732;9.148;2023-10-09T13:43:55;22.40;79.50
4828;DHT22;2428;48.732;9.148;2023-10-09T13:46:23;22.40;80.40
4828;DHT22;2428;48.732;9.148;2023-10-09T13:48:58;22.50;80.60
4828;DHT22;2428;48.732;9.148;2023-10-09T13:51:26;22.60;79.60
4828;DHT22;2428;48.732;9.148;2023-10-09T13:53:54;22.90;79.50
4828;DHT22;2428;48.732;9.148;2023-10-09T13:56:23;23.00;81.70
4828;DHT22;2428;48.732;9.148;2023-10-09T13:58:52;23.10;83.70
4828;DHT22;2428;48.732;9.148;2023-10-09T14:01:28;23.10;83.30
4828;DHT22;2428;48.732;9.148;2023-10-09T14:03:59;23.30;80.10
4828;DHT22;2428;48.732;9.148;2023-10-09T14:06:26;23.40;79.60
4828;DHT22;2428;48.732;9.148;2023-10-09T14:09:09;23.30;78.50
4828;DHT22;2428;48.732;9.148;2023-10-09T14:11:55;23.50;71.90
4828;DHT22;2428;48.732;9.148;2023-10-09T14:14:32;23.50;72.80
4828;DHT22;2428;48.732;9.148;2023-10-09T14:16:57;23.60;71.50
4828;DHT22;2428;48.732;9.148;2023-10-09T14:19:23;23.60;74.50
4828;DHT22;2428;48.732;9.148;2023-10-09T14:21:48;23.50;75.40
4828;DHT22;2428;48.732;9.148;2023-10-09T14:24:17;23.40;75.00
4828;DHT22;2428;48.732;9.148;2023-10-09T14:26:45;23.50;70.10
4828;DHT22;2428;48.732;9.148;2023-10-09T14:29:17;23.30;70.50
4828;DHT22;2428;48.732;9.148;2023-10-09T14:31:43;23.30;72.70
4828;DHT22;2428;48.732;9.148;2023-10-09T14:34:14;23.30;72.30
4828;DHT22;2428;48.732;9.148;2023-10-09T14:36:47;23.30;76.20
4828;DHT22;2428;48.732;9.148;2023-10-09T14:39:13;23.30;73.80
4828;DHT22;2428;48.732;9.148;2023-10-09T14:41:44;23.20;74.40
4828;DHT22;2428;48.732;9.148;2023-10-09T14:44:12;23.20;74.80
4828;DHT22;2428;48.732;9.148;2023-10-09T14:46:41;23.10;70.30
4828;DHT22;2428;48.732;9.148;2023-10-09T14:49:07;23.00;71.40
4828;DHT22;2428;48.732;9.148;2023-10-09T14:51:32;23.00;72.40
4828;DHT22;2428;48.732;9.148;2023-10-09T14:53:59;22.90;72.80
4828;DHT22;2428;48.732;9.148;2023-10-09T14:56:30;22.90;75.00
4828;DHT22;2428;48.732;9.148;2023-10-09T14:59:02;22.90;77.00
4828;DHT22;2428;48.732;9.148;2023-10-09T15:01:28;22.80;78.40
4828;DHT22;2428;48.732;9.148;2023-10-09T15:04:00;22.80;84.30
4828;DHT22;2428;48.732;9.148;2023-10-09T15:06:32;22.70;79.50
4828;DHT22;2428;48.732;9.148;2023-10-09T15:08:59;22.70;82.20
4828;DHT22;2428;48.732;9.148;2023-10-09T15:11:44;22.60;79.60
4828;DHT22;2428;48.732;9.148;2023-10-09T15:14:10;22.60;82.40
4828;DHT22;2428;48.732;9.148;2023-10-09T15:16:35;22.70;89.00
4828;DHT22;2428;48.732;9.148;2023-10-09T15:19:04;22.60;87.40
4828;DHT22;2428;48.732;9.148;2023-10-09T15:21:30;22.50;88.80
4828;DHT22;2428;48.732;9.148;2023-10-09T15:23:58;22.40;91.20
4828;DHT22;2428;48.732;9.148;2023-10-09T15:26:27;22.40;92.80
4828;DHT22;2428;48.732;9.148;2023-10-09T15:29:04;22.20;92.40
4828;DHT22;2428;48.732;9.148;2023-10-09T15:31:35;22.10;83.60
4828;DHT22;2428;48.732;9.148;2023-10-09T15:34:01;22.00;88.00
4828;DHT22;2428;48.732;9.148;2023-10-09T15:36:27;21.90;88.80
4828;DHT22;2428;48.732;9.148;2023-10-09T15:38:56;21.90;88.40
4828;DHT22;2428;48.732;9.148;2023-10-09T15:41:29;21.90;90.10
4828;DHT22;2428;48.732;9.148;2023-10-09T15:43:58;21.80;94.00
4828;DHT22;2428;48.732;9.148;2023-10-09T15:46:27;21.80;94.60
4828;DHT22;2428;48.732;9.148;2023-10-09T15:48:59;21.70;95.30
4828;DHT22;2428;48.732;9.148;2023-10-09T15:51:27;21.60;94.30
4828;DHT22;2428;48.732;9.148;2023-10-09T15:53:52;21.60;94.20
4828;DHT22;2428;48.732;9.148;2023-10-09T15:56:18;21.50;96.50
4828;DHT22;2428;48.732;9.148;2023-10-09T15:58:44;21.50;98.20
4828;DHT22;2428;48.732;9.148;2023-10-09T16:01:11;21.40;99.00
4828;DHT22;2428;48.732;9.148;2023-10-09T16:03:44;21.30;99.30
4828;DHT22;2428;48.732;9.148;2023-10-09T16:06:13;21.20;98.90
4828;DHT22;2428;48.732;9.148;2023-10-09T16:08:42;21.10;97.80
4828;DHT22;2428;48.732;9.148;2023-10-09T16:11:11;21.00;97.40
4828;DHT22;2428;48.732;9.148;2023-10-09T16:13:37;21.00;95.90
4828;DHT22;2428;48.732;9.148;2023-10-09T16:16:04;20.90;97.60
4828;DHT22;2428;48.732;9.148;2023-10-09T16:18:36;20.90;98.10
4828;DHT22;2428;48.732;9.148;2023-10-09T16:21:04;20.80;98.10
4828;DHT22;2428;48.732;9.148;2023-10-09T16:23:34;20.80;97.70
4828;DHT22;2428;48.732;9.148;2023-10-09T16:25:59;20.80;99.90
4828;DHT22;2428;48.732;9.148;2023-10-09T16:28:28;20.70;99.90
4828;DHT22;2428;48.732;9.148;2023-10-09T16:30:54;20.60;99.90
4828;DHT22;2428;48.732;9.148;2023-10-09T16:33:21;20.50;99.90
4828;DHT22;2428;48.732;9.148;2023-10-09T16:35:49;20.40;99.90
4828;DHT22;2428;48.732;9.148;2023-10-09T16:38:16;20.40;99.90
4828;DHT22;2428;48.732;9.148;2023-10-09T16:40:42;20.30;99.90
4828;DHT22;2428;48.732;9.148;2023-10-09T16:43:17;20.20;99.90
4828;DHT22;2428;48.732;9.148;2023-10-09T16:45:43;20.10;99.90
4828;DHT22;2428;48.732;9.148;2023-10-09T16:48:09;20.00;99.90
4828;DHT22;2428;48.732;9.148;2023-10-09T16:50:35;19.90;99.90
4828;DHT22;2428;48.732;9.148;2023-10-09T16:53:01;19.80;99.90
4828;DHT22;2428;48.732;9.148;2023-10-09T16:55:29;19.70;99.90
4828;DHT22;2428;48.732;9.148;2023-10-09T16:57:55;19.60;99.90
4828;DHT22;2428;48.732;9.148;2023-10-09T17:00:22;19.50;99.90
4828;DHT22;2428;48.732;9.148;2023-10-09T17:02:55;19.50;99.90
4828;DHT22;2428;48.732;9.148;2023-10-09T17:05:23;19.40;99.90
4828;DHT22;2428;48.732;9.148;2023-10-09T17:08:02;19.30;99.90